sensor_id;sensor_type;location;lat;lon;timestamp;P1;durP1;ratioP1;P2;durP2;ratioP2
53044;SDS011;38930;52.766;6.884;2022-07-06T00:01:50;5.37;;;1.90;;
53044;SDS011;38930;52.766;6.884;2022-07-06T00:04:19;3.53;;;1.50;;
53044;SDS011;38930;52.766;6.884;2022-07-06T00:06:44;4.65;;;1.75;;
53044;SDS011;38930;52.766;6.884;2022-07-06T00:09:10;5.57;;;1.80;;
53044;SDS011;38930;52.766;6.884;2022-07-06T00:11:36;4.13;;;1.50;;
53044;SDS011;38930;52.766;6.884;2022-07-06T00:14:02;4.87;;;1.67;;
53044;SDS011;38930;52.766;6.884;2022-07-06T00:16:28;3.88;;;1.50;;
53044;SDS011;38930;52.766;6.884;2022-07-06T00:18:54;4.10;;;1.60;;
53044;SDS011;38930;52.766;6.884;2022-07-06T00:21:19;5.43;;;1.70;;
53044;SDS011;38930;52.766;6.884;2022-07-06T00:23:45;3.83;;;1.50;;
53044;SDS011;38930;52.766;6.884;2022-07-06T00:26:11;4.40;;;1.50;;
53044;SDS011;38930;52.766;6.884;2022-07-06T00:28:36;8.02;;;1.90;;
53044;SDS011;38930;52.766;6.884;2022-07-06T00:31:02;2.73;;;1.40;;
53044;SDS011;38930;52.766;6.884;2022-07-06T00:33:27;4.45;;;1.60;;
53044;SDS011;38930;52.766;6.884;2022-07-06T00:35:53;5.30;;;1.63;;
53044;SDS011;38930;52.766;6.884;2022-07-06T00:38:18;5.97;;;1.63;;
53044;SDS011;38930;52.766;6.884;2022-07-06T00:40:44;5.60;;;1.92;;
53044;SDS011;38930;52.766;6.884;2022-07-06T00:43:10;4.10;;;1.50;;
53044;SDS011;38930;52.766;6.884;2022-07-06T00:45:36;3.60;;;1.65;;
53044;SDS011;38930;52.766;6.884;2022-07-06T00:48:01;4.55;;;1.58;;
53044;SDS011;38930;52.766;6.884;2022-07-06T00:50:27;4.40;;;1.60;;
53044;SDS011;38930;52.766;6.884;2022-07-06T00:52:54;4.18;;;1.70;;
53044;SDS011;38930;52.766;6.884;2022-07-06T00:55:22;3.92;;;1.67;;
53044;SDS011;38930;52.766;6.884;2022-07-06T00:57:49;5.15;;;1.90;;
53044;SDS011;38930;52.766;6.884;2022-07-06T01:00:16;3.15;;;1.70;;
53044;SDS011;38930;52.766;6.884;2022-07-06T01:02:43;6.80;;;1.70;;
53044;SDS011;38930;52.766;6.884;2022-07-06T01:05:10;4.38;;;1.73;;
53044;SDS011;38930;52.766;6.884;2022-07-06T01:07:38;4.82;;;1.58;;
53044;SDS011;38930;52.766;6.884;2022-07-06T01:10:05;4.50;;;1.88;;
53044;SDS011;38930;52.766;6.884;2022-07-06T01:12:33;4.35;;;1.58;;
53044;SDS011;38930;52.766;6.884;2022-07-06T01:15:02;3.45;;;1.50;;
53044;SDS011;38930;52.766;6.884;2022-07-06T01:17:29;3.78;;;1.67;;
53044;SDS011;38930;52.766;6.884;2022-07-06T01:19:55;4.53;;;1.67;;
53044;SDS011;38930;52.766;6.884;2022-07-06T01:22:21;6.00;;;1.73;;
53044;SDS011;38930;52.766;6.884;2022-07-06T01:24:46;4.50;;;1.80;;
53044;SDS011;38930;52.766;6.884;2022-07-06T01:27:12;6.10;;;1.80;;
53044;SDS011;38930;52.766;6.884;2022-07-06T01:29:38;4.10;;;1.77;;
53044;SDS011;38930;52.766;6.884;2022-07-06T01:32:04;7.03;;;2.58;;
53044;SDS011;38930;52.766;6.884;2022-07-06T01:34:30;4.63;;;1.65;;
53044;SDS011;38930;52.766;6.884;2022-07-06T01:36:55;4.75;;;1.77;;
53044;SDS011;38930;52.766;6.884;2022-07-06T01:39:21;3.60;;;1.58;;
53044;SDS011;38930;52.766;6.884;2022-07-06T01:41:47;4.20;;;1.55;;
53044;SDS011;38930;52.766;6.884;2022-07-06T01:44:12;3.42;;;1.60;;
53044;SDS011;38930;52.766;6.884;2022-07-06T01:46:38;6.97;;;1.83;;
53044;SDS011;38930;52.766;6.884;2022-07-06T01:49:04;3.15;;;1.63;;
53044;SDS011;38930;52.766;6.884;2022-07-06T01:51:30;5.50;;;2.00;;
53044;SDS011;38930;52.766;6.884;2022-07-06T01:53:56;4.30;;;1.55;;
53044;SDS011;38930;52.766;6.884;2022-07-06T01:56:22;4.28;;;1.70;;
53044;SDS011;38930;52.766;6.884;2022-07-06T01:58:47;3.57;;;1.63;;
53044;SDS011;38930;52.766;6.884;2022-07-06T02:01:14;5.27;;;2.00;;
53044;SDS011;38930;52.766;6.884;2022-07-06T02:03:41;4.20;;;1.70;;
53044;SDS011;38930;52.766;6.884;2022-07-06T02:06:07;4.40;;;1.80;;
53044;SDS011;38930;52.766;6.884;2022-07-06T02:08:34;4.63;;;1.88;;
53044;SDS011;38930;52.766;6.884;2022-07-06T02:11:01;5.65;;;2.13;;
53044;SDS011;38930;52.766;6.884;2022-07-06T02:13:31;5.93;;;1.63;;
53044;SDS011;38930;52.766;6.884;2022-07-06T02:15:57;4.23;;;1.60;;
53044;SDS011;38930;52.766;6.884;2022-07-06T02:18:22;4.60;;;2.03;;
53044;SDS011;38930;52.766;6.884;2022-07-06T02:20:48;5.47;;;1.80;;
53044;SDS011;38930;52.766;6.884;2022-07-06T02:23:14;4.55;;;1.65;;
53044;SDS011;38930;52.766;6.884;2022-07-06T02:25:39;6.75;;;2.10;;
53044;SDS011;38930;52.766;6.884;2022-07-06T02:28:05;5.57;;;1.70;;
53044;SDS011;38930;52.766;6.884;2022-07-06T02:30:31;3.80;;;1.90;;
53044;SDS011;38930;52.766;6.884;2022-07-06T02:32:56;7.80;;;1.73;;
53044;SDS011;38930;52.766;6.884;2022-07-06T02:35:22;4.40;;;1.50;;
53044;SDS011;38930;52.766;6.884;2022-07-06T02:37:47;3.05;;;1.63;;
53044;SDS011;38930;52.766;6.884;2022-07-06T02:40:13;3.85;;;1.92;;
53044;SDS011;38930;52.766;6.884;2022-07-06T02:42:39;4.47;;;1.60;;
53044;SDS011;38930;52.766;6.884;2022-07-06T02:45:04;5.60;;;1.65;;
53044;SDS011;38930;52.766;6.884;2022-07-06T02:47:30;4.83;;;1.73;;
53044;SDS011;38930;52.766;6.884;2022-07-06T02:49:56;5.03;;;1.70;;
53044;SDS011;38930;52.766;6.884;2022-07-06T02:52:22;3.30;;;1.50;;
53044;SDS011;38930;52.766;6.884;2022-07-06T02:54:47;5.73;;;1.93;;
53044;SDS011;38930;52.766;6.884;2022-07-06T02:57:14;6.88;;;1.65;;
53044;SDS011;38930;52.766;6.884;2022-07-06T02:59:40;5.18;;;1.90;;
53044;SDS011;38930;52.766;6.884;2022-07-06T03:02:06;3.17;;;1.50;;
53044;SDS011;38930;52.766;6.884;2022-07-06T03:04:32;4.82;;;1.90;;
53044;SDS011;38930;52.766;6.884;2022-07-06T03:06:58;4.20;;;1.80;;
53044;SDS011;38930;52.766;6.884;2022-07-06T03:09:24;4.85;;;2.05;;
53044;SDS011;38930;52.766;6.884;2022-07-06T03:11:50;5.20;;;1.92;;
53044;SDS011;38930;52.766;6.884;2022-07-06T03:14:15;3.97;;;1.80;;
53044;SDS011;38930;52.766;6.884;2022-07-06T03:16:41;5.23;;;1.80;;
53044;SDS011;38930;52.766;6.884;2022-07-06T03:19:06;4.53;;;1.90;;
53044;SDS011;38930;52.766;6.884;2022-07-06T03:21:32;4.27;;;2.03;;
53044;SDS011;38930;52.766;6.884;2022-07-06T03:23:58;3.83;;;1.77;;
53044;SDS011;38930;52.766;6.884;2022-07-06T03:26:23;4.40;;;1.60;;
53044;SDS011;38930;52.766;6.884;2022-07-06T03:28:50;5.25;;;1.77;;
53044;SDS011;38930;52.766;6.884;2022-07-06T03:31:15;3.60;;;1.90;;
53044;SDS011;38930;52.766;6.884;2022-07-06T03:33:41;5.72;;;2.10;;
53044;SDS011;38930;52.766;6.884;2022-07-06T03:36:07;6.00;;;1.90;;
53044;SDS011;38930;52.766;6.884;2022-07-06T03:38:33;5.10;;;1.90;;
53044;SDS011;38930;52.766;6.884;2022-07-06T03:41:00;5.53;;;1.88;;
53044;SDS011;38930;52.766;6.884;2022-07-06T03:43:25;4.43;;;1.87;;
53044;SDS011;38930;52.766;6.884;2022-07-06T03:45:51;7.18;;;2.35;;
53044;SDS011;38930;52.766;6.884;2022-07-06T03:48:16;4.43;;;1.90;;
53044;SDS011;38930;52.766;6.884;2022-07-06T03:50:42;5.63;;;2.17;;
53044;SDS011;38930;52.766;6.884;2022-07-06T03:53:08;6.05;;;1.90;;
53044;SDS011;38930;52.766;6.884;2022-07-06T03:55:33;3.10;;;1.67;;
53044;SDS011;38930;52.766;6.884;2022-07-06T03:57:59;3.33;;;1.73;;
53044;SDS011;38930;52.766;6.884;2022-07-06T04:00:25;3.83;;;1.42;;
53044;SDS011;38930;52.766;6.884;2022-07-06T04:02:51;3.45;;;1.60;;
53044;SDS011;38930;52.766;6.884;2022-07-06T04:05:16;5.80;;;1.75;;
53044;SDS011;38930;52.766;6.884;2022-07-06T04:07:46;4.10;;;1.80;;
53044;SDS011;38930;52.766;6.884;2022-07-06T04:10:12;7.10;;;1.52;;
53044;SDS011;38930;52.766;6.884;2022-07-06T04:12:44;6.77;;;1.53;;
53044;SDS011;38930;52.766;6.884;2022-07-06T04:15:10;5.10;;;1.52;;
53044;SDS011;38930;52.766;6.884;2022-07-06T04:17:37;4.30;;;1.63;;
53044;SDS011;38930;52.766;6.884;2022-07-06T04:20:19;3.83;;;1.70;;
53044;SDS011;38930;52.766;6.884;2022-07-06T04:22:46;3.53;;;1.75;;
53044;SDS011;38930;52.766;6.884;2022-07-06T04:25:12;6.93;;;2.08;;
53044;SDS011;38930;52.766;6.884;2022-07-06T04:27:38;3.93;;;1.80;;
53044;SDS011;38930;52.766;6.884;2022-07-06T04:30:04;5.38;;;1.83;;
53044;SDS011;38930;52.766;6.884;2022-07-06T04:32:32;3.72;;;1.67;;
53044;SDS011;38930;52.766;6.884;2022-07-06T04:34:57;5.40;;;1.80;;
53044;SDS011;38930;52.766;6.884;2022-07-06T04:37:23;4.28;;;1.65;;
53044;SDS011;38930;52.766;6.884;2022-07-06T04:39:49;3.40;;;1.50;;
53044;SDS011;38930;52.766;6.884;2022-07-06T04:42:14;5.00;;;1.63;;
53044;SDS011;38930;52.766;6.884;2022-07-06T04:44:40;5.17;;;2.03;;
53044;SDS011;38930;52.766;6.884;2022-07-06T04:47:05;4.30;;;1.60;;
53044;SDS011;38930;52.766;6.884;2022-07-06T04:49:31;4.73;;;1.50;;
53044;SDS011;38930;52.766;6.884;2022-07-06T04:51:57;3.53;;;1.40;;
53044;SDS011;38930;52.766;6.884;2022-07-06T04:54:23;3.70;;;1.52;;
53044;SDS011;38930;52.766;6.884;2022-07-06T04:56:48;6.40;;;1.67;;
53044;SDS011;38930;52.766;6.884;2022-07-06T04:59:14;5.40;;;1.52;;
53044;SDS011;38930;52.766;6.884;2022-07-06T05:01:40;3.70;;;1.60;;
53044;SDS011;38930;52.766;6.884;2022-07-06T05:04:06;6.15;;;1.80;;
53044;SDS011;38930;52.766;6.884;2022-07-06T05:06:32;5.00;;;1.50;;
53044;SDS011;38930;52.766;6.884;2022-07-06T05:08:58;6.67;;;1.70;;
53044;SDS011;38930;52.766;6.884;2022-07-06T05:11:26;8.23;;;1.83;;
53044;SDS011;38930;52.766;6.884;2022-07-06T05:13:52;5.78;;;1.60;;
53044;SDS011;38930;52.766;6.884;2022-07-06T05:16:18;4.60;;;1.40;;
53044;SDS011;38930;52.766;6.884;2022-07-06T05:18:43;5.17;;;1.50;;
53044;SDS011;38930;52.766;6.884;2022-07-06T05:21:09;4.15;;;1.67;;
53044;SDS011;38930;52.766;6.884;2022-07-06T05:23:35;4.07;;;1.30;;
53044;SDS011;38930;52.766;6.884;2022-07-06T05:26:00;5.45;;;1.30;;
53044;SDS011;38930;52.766;6.884;2022-07-06T05:28:26;5.38;;;1.60;;
53044;SDS011;38930;52.766;6.884;2022-07-06T05:30:52;7.05;;;1.70;;
53044;SDS011;38930;52.766;6.884;2022-07-06T05:33:18;5.13;;;1.63;;
53044;SDS011;38930;52.766;6.884;2022-07-06T05:35:43;4.03;;;1.30;;
53044;SDS011;38930;52.766;6.884;2022-07-06T05:38:09;5.75;;;1.38;;
53044;SDS011;38930;52.766;6.884;2022-07-06T05:40:35;6.87;;;1.40;;
53044;SDS011;38930;52.766;6.884;2022-07-06T05:43:01;4.47;;;1.33;;
53044;SDS011;38930;52.766;6.884;2022-07-06T05:45:27;3.73;;;1.40;;
53044;SDS011;38930;52.766;6.884;2022-07-06T05:47:52;4.20;;;1.23;;
53044;SDS011;38930;52.766;6.884;2022-07-06T05:50:37;5.07;;;1.20;;
53044;SDS011;38930;52.766;6.884;2022-07-06T05:53:03;2.57;;;1.00;;
53044;SDS011;38930;52.766;6.884;2022-07-06T05:55:30;5.30;;;1.15;;
53044;SDS011;38930;52.766;6.884;2022-07-06T05:57:57;5.90;;;1.20;;
53044;SDS011;38930;52.766;6.884;2022-07-06T06:00:23;5.07;;;1.53;;
53044;SDS011;38930;52.766;6.884;2022-07-06T06:02:50;3.92;;;1.10;;
53044;SDS011;38930;52.766;6.884;2022-07-06T06:05:17;4.82;;;1.33;;
53044;SDS011;38930;52.766;6.884;2022-07-06T06:07:43;6.13;;;1.25;;
53044;SDS011;38930;52.766;6.884;2022-07-06T06:12:36;3.55;;;1.10;;
53044;SDS011;38930;52.766;6.884;2022-07-06T06:15:02;4.72;;;1.48;;
53044;SDS011;38930;52.766;6.884;2022-07-06T06:17:29;3.90;;;1.00;;
53044;SDS011;38930;52.766;6.884;2022-07-06T06:19:55;5.57;;;1.30;;
53044;SDS011;38930;52.766;6.884;2022-07-06T06:22:20;4.18;;;1.10;;
53044;SDS011;38930;52.766;6.884;2022-07-06T06:24:46;3.73;;;1.03;;
53044;SDS011;38930;52.766;6.884;2022-07-06T06:27:11;4.57;;;1.20;;
53044;SDS011;38930;52.766;6.884;2022-07-06T06:29:37;3.15;;;0.90;;
53044;SDS011;38930;52.766;6.884;2022-07-06T06:32:03;3.93;;;1.23;;
53044;SDS011;38930;52.766;6.884;2022-07-06T06:34:30;4.53;;;0.95;;
53044;SDS011;38930;52.766;6.884;2022-07-06T06:36:56;5.70;;;1.02;;
53044;SDS011;38930;52.766;6.884;2022-07-06T06:39:22;2.63;;;1.07;;
53044;SDS011;38930;52.766;6.884;2022-07-06T06:41:47;4.23;;;1.07;;
53044;SDS011;38930;52.766;6.884;2022-07-06T06:44:13;3.00;;;1.17;;
53044;SDS011;38930;52.766;6.884;2022-07-06T06:46:39;4.73;;;1.10;;
53044;SDS011;38930;52.766;6.884;2022-07-06T06:49:05;5.13;;;1.30;;
53044;SDS011;38930;52.766;6.884;2022-07-06T06:51:31;5.07;;;1.10;;
53044;SDS011;38930;52.766;6.884;2022-07-06T06:53:57;3.60;;;1.05;;
53044;SDS011;38930;52.766;6.884;2022-07-06T06:56:23;3.80;;;1.03;;
53044;SDS011;38930;52.766;6.884;2022-07-06T06:58:48;2.50;;;1.00;;
53044;SDS011;38930;52.766;6.884;2022-07-06T07:01:14;4.13;;;1.30;;
53044;SDS011;38930;52.766;6.884;2022-07-06T07:03:40;4.17;;;1.00;;
53044;SDS011;38930;52.766;6.884;2022-07-06T07:06:05;4.87;;;1.10;;
53044;SDS011;38930;52.766;6.884;2022-07-06T07:08:31;5.07;;;1.10;;
53044;SDS011;38930;52.766;6.884;2022-07-06T07:10:57;3.47;;;1.08;;
53044;SDS011;38930;52.766;6.884;2022-07-06T07:13:22;3.27;;;0.90;;
53044;SDS011;38930;52.766;6.884;2022-07-06T07:15:48;5.90;;;1.17;;
53044;SDS011;38930;52.766;6.884;2022-07-06T07:18:13;5.10;;;1.10;;
53044;SDS011;38930;52.766;6.884;2022-07-06T07:20:39;3.27;;;0.90;;
53044;SDS011;38930;52.766;6.884;2022-07-06T07:23:05;4.65;;;1.08;;
53044;SDS011;38930;52.766;6.884;2022-07-06T07:25:30;3.07;;;0.87;;
53044;SDS011;38930;52.766;6.884;2022-07-06T07:27:56;4.68;;;0.80;;
53044;SDS011;38930;52.766;6.884;2022-07-06T07:30:21;4.37;;;0.90;;
53044;SDS011;38930;52.766;6.884;2022-07-06T07:32:47;3.90;;;1.07;;
53044;SDS011;38930;52.766;6.884;2022-07-06T07:35:13;3.83;;;1.10;;
53044;SDS011;38930;52.766;6.884;2022-07-06T07:37:38;4.10;;;1.07;;
53044;SDS011;38930;52.766;6.884;2022-07-06T07:40:04;2.27;;;0.87;;
53044;SDS011;38930;52.766;6.884;2022-07-06T07:42:31;3.42;;;0.98;;
53044;SDS011;38930;52.766;6.884;2022-07-06T07:44:57;5.45;;;1.13;;
53044;SDS011;38930;52.766;6.884;2022-07-06T07:47:23;3.17;;;0.80;;
53044;SDS011;38930;52.766;6.884;2022-07-06T07:49:48;3.07;;;1.10;;
53044;SDS011;38930;52.766;6.884;2022-07-06T07:52:14;4.33;;;1.20;;
53044;SDS011;38930;52.766;6.884;2022-07-06T07:54:40;4.70;;;0.93;;
53044;SDS011;38930;52.766;6.884;2022-07-06T07:57:06;5.40;;;0.97;;
53044;SDS011;38930;52.766;6.884;2022-07-06T07:59:31;2.77;;;0.87;;
53044;SDS011;38930;52.766;6.884;2022-07-06T08:01:57;7.83;;;1.00;;
53044;SDS011;38930;52.766;6.884;2022-07-06T08:04:22;6.30;;;1.20;;
53044;SDS011;38930;52.766;6.884;2022-07-06T08:06:48;5.00;;;0.90;;
53044;SDS011;38930;52.766;6.884;2022-07-06T08:09:14;2.97;;;0.73;;
53044;SDS011;38930;52.766;6.884;2022-07-06T08:11:41;3.83;;;0.90;;
53044;SDS011;38930;52.766;6.884;2022-07-06T08:14:07;2.97;;;0.70;;
53044;SDS011;38930;52.766;6.884;2022-07-06T08:16:33;2.40;;;0.80;;
53044;SDS011;38930;52.766;6.884;2022-07-06T08:18:59;2.50;;;0.80;;
53044;SDS011;38930;52.766;6.884;2022-07-06T08:21:25;3.90;;;0.90;;
53044;SDS011;38930;52.766;6.884;2022-07-06T08:23:50;3.57;;;0.90;;
53044;SDS011;38930;52.766;6.884;2022-07-06T08:26:16;3.97;;;1.00;;
53044;SDS011;38930;52.766;6.884;2022-07-06T08:28:42;3.83;;;0.97;;
53044;SDS011;38930;52.766;6.884;2022-07-06T08:31:08;3.10;;;0.83;;
53044;SDS011;38930;52.766;6.884;2022-07-06T08:33:33;3.53;;;0.80;;
53044;SDS011;38930;52.766;6.884;2022-07-06T08:35:59;4.43;;;1.07;;
53044;SDS011;38930;52.766;6.884;2022-07-06T08:38:24;4.30;;;0.97;;
53044;SDS011;38930;52.766;6.884;2022-07-06T08:40:50;4.13;;;0.90;;
53044;SDS011;38930;52.766;6.884;2022-07-06T08:43:16;3.27;;;0.90;;
53044;SDS011;38930;52.766;6.884;2022-07-06T08:45:42;2.73;;;0.80;;
53044;SDS011;38930;52.766;6.884;2022-07-06T08:48:09;3.65;;;1.00;;
53044;SDS011;38930;52.766;6.884;2022-07-06T08:50:36;2.60;;;0.90;;
53044;SDS011;38930;52.766;6.884;2022-07-06T08:53:02;5.15;;;1.13;;
53044;SDS011;38930;52.766;6.884;2022-07-06T08:55:28;4.95;;;0.85;;
53044;SDS011;38930;52.766;6.884;2022-07-06T08:57:55;2.95;;;0.80;;
53044;SDS011;38930;52.766;6.884;2022-07-06T09:00:22;3.40;;;1.00;;
53044;SDS011;38930;52.766;6.884;2022-07-06T09:02:51;5.30;;;1.10;;
53044;SDS011;38930;52.766;6.884;2022-07-06T09:05:21;2.05;;;0.73;;
53044;SDS011;38930;52.766;6.884;2022-07-06T09:07:49;1.85;;;0.90;;
53044;SDS011;38930;52.766;6.884;2022-07-06T09:10:19;3.17;;;0.77;;
53044;SDS011;38930;52.766;6.884;2022-07-06T09:12:46;2.72;;;0.82;;
53044;SDS011;38930;52.766;6.884;2022-07-06T09:15:12;3.50;;;0.97;;
53044;SDS011;38930;52.766;6.884;2022-07-06T09:17:39;2.53;;;1.07;;
53044;SDS011;38930;52.766;6.884;2022-07-06T09:20:09;3.47;;;0.80;;
53044;SDS011;38930;52.766;6.884;2022-07-06T09:22:37;3.80;;;0.65;;
53044;SDS011;38930;52.766;6.884;2022-07-06T09:27:30;3.45;;;0.73;;
53044;SDS011;38930;52.766;6.884;2022-07-06T09:29:59;5.83;;;1.00;;
53044;SDS011;38930;52.766;6.884;2022-07-06T09:32:26;2.08;;;0.88;;
53044;SDS011;38930;52.766;6.884;2022-07-06T09:34:52;3.47;;;0.70;;
53044;SDS011;38930;52.766;6.884;2022-07-06T09:37:19;3.33;;;0.90;;
53044;SDS011;38930;52.766;6.884;2022-07-06T09:39:49;4.05;;;1.10;;
53044;SDS011;38930;52.766;6.884;2022-07-06T09:42:14;2.33;;;0.70;;
53044;SDS011;38930;52.766;6.884;2022-07-06T09:44:40;3.10;;;0.77;;
53044;SDS011;38930;52.766;6.884;2022-07-06T09:47:07;3.40;;;0.82;;
53044;SDS011;38930;52.766;6.884;2022-07-06T09:49:35;5.00;;;0.82;;
53044;SDS011;38930;52.766;6.884;2022-07-06T09:52:02;2.35;;;0.80;;
53044;SDS011;38930;52.766;6.884;2022-07-06T09:54:29;2.83;;;1.00;;
53044;SDS011;38930;52.766;6.884;2022-07-06T09:56:56;2.47;;;0.80;;
53044;SDS011;38930;52.766;6.884;2022-07-06T09:59:22;2.47;;;0.90;;
53044;SDS011;38930;52.766;6.884;2022-07-06T10:01:53;3.83;;;0.80;;
53044;SDS011;38930;52.766;6.884;2022-07-06T10:04:20;2.78;;;0.70;;
53044;SDS011;38930;52.766;6.884;2022-07-06T10:06:47;2.55;;;0.70;;
53044;SDS011;38930;52.766;6.884;2022-07-06T10:09:13;2.47;;;0.80;;
53044;SDS011;38930;52.766;6.884;2022-07-06T10:11:41;3.83;;;0.77;;
53044;SDS011;38930;52.766;6.884;2022-07-06T10:14:19;1.75;;;0.60;;
53044;SDS011;38930;52.766;6.884;2022-07-06T10:16:46;2.78;;;0.70;;
53044;SDS011;38930;52.766;6.884;2022-07-06T10:19:13;2.50;;;0.70;;
53044;SDS011;38930;52.766;6.884;2022-07-06T10:21:40;2.78;;;0.63;;
53044;SDS011;38930;52.766;6.884;2022-07-06T10:24:06;2.85;;;0.60;;
53044;SDS011;38930;52.766;6.884;2022-07-06T10:26:33;2.88;;;0.65;;
53044;SDS011;38930;52.766;6.884;2022-07-06T10:29:04;1.63;;;0.55;;
53044;SDS011;38930;52.766;6.884;2022-07-06T10:31:31;2.75;;;0.60;;
53044;SDS011;38930;52.766;6.884;2022-07-06T10:33:59;3.80;;;0.80;;
53044;SDS011;38930;52.766;6.884;2022-07-06T10:36:27;2.45;;;0.65;;
53044;SDS011;38930;52.766;6.884;2022-07-06T10:38:53;2.15;;;0.60;;
53044;SDS011;38930;52.766;6.884;2022-07-06T10:41:29;3.20;;;0.60;;
53044;SDS011;38930;52.766;6.884;2022-07-06T10:43:56;2.53;;;0.70;;
53044;SDS011;38930;52.766;6.884;2022-07-06T10:48:52;1.23;;;0.40;;
53044;SDS011;38930;52.766;6.884;2022-07-06T10:53:55;2.83;;;0.65;;
53044;SDS011;38930;52.766;6.884;2022-07-06T10:56:31;2.97;;;0.60;;
53044;SDS011;38930;52.766;6.884;2022-07-06T10:59:01;1.80;;;0.57;;
53044;SDS011;38930;52.766;6.884;2022-07-06T11:01:33;1.17;;;0.55;;
53044;SDS011;38930;52.766;6.884;2022-07-06T11:06:26;3.22;;;0.63;;
53044;SDS011;38930;52.766;6.884;2022-07-06T11:08:55;1.63;;;0.50;;
53044;SDS011;38930;52.766;6.884;2022-07-06T11:14:13;2.30;;;0.63;;
53044;SDS011;38930;52.766;6.884;2022-07-06T11:19:15;2.28;;;0.80;;
53044;SDS011;38930;52.766;6.884;2022-07-06T11:24:19;3.97;;;0.70;;
53044;SDS011;38930;52.766;6.884;2022-07-06T11:26:52;2.08;;;0.85;;
53044;SDS011;38930;52.766;6.884;2022-07-06T11:31:46;2.28;;;0.77;;
53044;SDS011;38930;52.766;6.884;2022-07-06T11:34:17;1.33;;;0.50;;
53044;SDS011;38930;52.766;6.884;2022-07-06T11:36:45;2.17;;;0.65;;
53044;SDS011;38930;52.766;6.884;2022-07-06T11:39:11;4.32;;;1.05;;
53044;SDS011;38930;52.766;6.884;2022-07-06T11:41:37;2.63;;;0.80;;
53044;SDS011;38930;52.766;6.884;2022-07-06T11:44:03;2.00;;;0.70;;
53044;SDS011;38930;52.766;6.884;2022-07-06T11:46:29;2.03;;;0.60;;
53044;SDS011;38930;52.766;6.884;2022-07-06T11:48:57;3.83;;;1.33;;
53044;SDS011;38930;52.766;6.884;2022-07-06T11:51:24;2.53;;;0.70;;
53044;SDS011;38930;52.766;6.884;2022-07-06T11:53:54;2.28;;;0.70;;
53044;SDS011;38930;52.766;6.884;2022-07-06T11:56:21;1.95;;;0.65;;
53044;SDS011;38930;52.766;6.884;2022-07-06T11:58:50;2.33;;;0.70;;
53044;SDS011;38930;52.766;6.884;2022-07-06T12:01:17;1.75;;;0.60;;
53044;SDS011;38930;52.766;6.884;2022-07-06T12:03:43;2.03;;;0.80;;
53044;SDS011;38930;52.766;6.884;2022-07-06T12:06:22;4.40;;;0.85;;
53044;SDS011;38930;52.766;6.884;2022-07-06T12:08:49;2.58;;;0.77;;
53044;SDS011;38930;52.766;6.884;2022-07-06T12:11:25;2.70;;;0.88;;
53044;SDS011;38930;52.766;6.884;2022-07-06T12:13:53;1.60;;;0.60;;
53044;SDS011;38930;52.766;6.884;2022-07-06T12:16:20;2.28;;;0.73;;
53044;SDS011;38930;52.766;6.884;2022-07-06T12:18:48;3.85;;;0.70;;
53044;SDS011;38930;52.766;6.884;2022-07-06T12:21:16;3.47;;;0.68;;
53044;SDS011;38930;52.766;6.884;2022-07-06T12:23:50;3.13;;;0.70;;
53044;SDS011;38930;52.766;6.884;2022-07-06T12:26:18;1.27;;;0.50;;
53044;SDS011;38930;52.766;6.884;2022-07-06T12:28:45;3.15;;;0.85;;
53044;SDS011;38930;52.766;6.884;2022-07-06T12:31:33;3.95;;;0.70;;
53044;SDS011;38930;52.766;6.884;2022-07-06T12:34:03;2.17;;;0.70;;
53044;SDS011;38930;52.766;6.884;2022-07-06T12:36:30;1.75;;;0.60;;
53044;SDS011;38930;52.766;6.884;2022-07-06T12:38:56;3.13;;;0.80;;
53044;SDS011;38930;52.766;6.884;2022-07-06T12:44:02;2.85;;;0.77;;
53044;SDS011;38930;52.766;6.884;2022-07-06T12:46:33;2.00;;;0.70;;
53044;SDS011;38930;52.766;6.884;2022-07-06T12:49:04;3.42;;;1.00;;
53044;SDS011;38930;52.766;6.884;2022-07-06T12:51:52;2.60;;;0.80;;
53044;SDS011;38930;52.766;6.884;2022-07-06T12:55:00;4.75;;;0.77;;
53044;SDS011;38930;52.766;6.884;2022-07-06T12:57:19;12.13;;;1.23;;
53044;SDS011;38930;52.766;6.884;2022-07-06T12:59:55;2.30;;;0.70;;
53044;SDS011;38930;52.766;6.884;2022-07-06T13:05:07;2.88;;;0.80;;
53044;SDS011;38930;52.766;6.884;2022-07-06T13:07:37;2.53;;;0.70;;
53044;SDS011;38930;52.766;6.884;2022-07-06T13:10:10;3.30;;;0.90;;
53044;SDS011;38930;52.766;6.884;2022-07-06T13:12:37;3.65;;;0.95;;
53044;SDS011;38930;52.766;6.884;2022-07-06T13:15:03;2.50;;;0.65;;
53044;SDS011;38930;52.766;6.884;2022-07-06T13:17:30;2.47;;;0.80;;
53044;SDS011;38930;52.766;6.884;2022-07-06T13:19:56;3.70;;;1.00;;
53044;SDS011;38930;52.766;6.884;2022-07-06T13:22:21;2.83;;;0.70;;
53044;SDS011;38930;52.766;6.884;2022-07-06T13:24:47;1.87;;;0.70;;
53044;SDS011;38930;52.766;6.884;2022-07-06T13:27:12;3.90;;;0.63;;
53044;SDS011;38930;52.766;6.884;2022-07-06T13:29:39;2.80;;;0.65;;
53044;SDS011;38930;52.766;6.884;2022-07-06T13:32:04;3.30;;;0.87;;
53044;SDS011;38930;52.766;6.884;2022-07-06T13:36:57;1.80;;;0.50;;
53044;SDS011;38930;52.766;6.884;2022-07-06T13:39:22;4.47;;;0.70;;
53044;SDS011;38930;52.766;6.884;2022-07-06T13:41:49;3.23;;;0.67;;
53044;SDS011;38930;52.766;6.884;2022-07-06T13:44:15;3.13;;;0.80;;
53044;SDS011;38930;52.766;6.884;2022-07-06T13:46:40;5.70;;;0.93;;
53044;SDS011;38930;52.766;6.884;2022-07-06T13:49:09;2.03;;;0.80;;
53044;SDS011;38930;52.766;6.884;2022-07-06T13:51:35;3.15;;;0.80;;
53044;SDS011;38930;52.766;6.884;2022-07-06T13:54:01;2.87;;;0.83;;
53044;SDS011;38930;52.766;6.884;2022-07-06T13:56:27;4.93;;;0.77;;
53044;SDS011;38930;52.766;6.884;2022-07-06T13:58:53;3.53;;;0.80;;
53044;SDS011;38930;52.766;6.884;2022-07-06T14:01:19;4.57;;;0.77;;
53044;SDS011;38930;52.766;6.884;2022-07-06T14:03:45;1.80;;;0.63;;
53044;SDS011;38930;52.766;6.884;2022-07-06T14:06:11;1.33;;;0.50;;
53044;SDS011;38930;52.766;6.884;2022-07-06T14:08:37;3.35;;;0.70;;
53044;SDS011;38930;52.766;6.884;2022-07-06T14:11:04;2.03;;;0.60;;
53044;SDS011;38930;52.766;6.884;2022-07-06T14:13:31;2.35;;;0.80;;
53044;SDS011;38930;52.766;6.884;2022-07-06T14:18:23;2.75;;;0.77;;
53044;SDS011;38930;52.766;6.884;2022-07-06T14:20:49;2.90;;;0.70;;
53044;SDS011;38930;52.766;6.884;2022-07-06T14:23:16;5.35;;;0.80;;
53044;SDS011;38930;52.766;6.884;2022-07-06T14:25:42;3.78;;;0.85;;
53044;SDS011;38930;52.766;6.884;2022-07-06T14:28:08;2.72;;;0.80;;
53044;SDS011;38930;52.766;6.884;2022-07-06T14:30:35;3.28;;;0.80;;
53044;SDS011;38930;52.766;6.884;2022-07-06T14:33:02;3.53;;;0.80;;
53044;SDS011;38930;52.766;6.884;2022-07-06T14:35:32;3.78;;;0.90;;
53044;SDS011;38930;52.766;6.884;2022-07-06T14:37:59;2.47;;;0.80;;
53044;SDS011;38930;52.766;6.884;2022-07-06T14:40:24;2.17;;;0.83;;
53044;SDS011;38930;52.766;6.884;2022-07-06T14:42:50;2.57;;;0.70;;
53044;SDS011;38930;52.766;6.884;2022-07-06T14:45:15;4.20;;;0.70;;
53044;SDS011;38930;52.766;6.884;2022-07-06T14:47:41;2.77;;;0.67;;
53044;SDS011;38930;52.766;6.884;2022-07-06T14:50:07;3.00;;;0.60;;
53044;SDS011;38930;52.766;6.884;2022-07-06T14:52:32;1.80;;;0.60;;
53044;SDS011;38930;52.766;6.884;2022-07-06T14:54:58;2.23;;;0.67;;
53044;SDS011;38930;52.766;6.884;2022-07-06T14:57:24;2.25;;;0.80;;
53044;SDS011;38930;52.766;6.884;2022-07-06T14:59:50;2.55;;;0.70;;
53044;SDS011;38930;52.766;6.884;2022-07-06T15:02:16;6.47;;;1.10;;
53044;SDS011;38930;52.766;6.884;2022-07-06T15:04:41;2.10;;;0.80;;
53044;SDS011;38930;52.766;6.884;2022-07-06T15:07:07;3.17;;;0.77;;
53044;SDS011;38930;52.766;6.884;2022-07-06T15:09:33;3.10;;;0.97;;
53044;SDS011;38930;52.766;6.884;2022-07-06T15:11:58;2.93;;;1.00;;
53044;SDS011;38930;52.766;6.884;2022-07-06T15:14:24;2.73;;;1.00;;
53044;SDS011;38930;52.766;6.884;2022-07-06T15:16:51;2.60;;;0.60;;
53044;SDS011;38930;52.766;6.884;2022-07-06T15:19:17;2.10;;;0.77;;